Kirkwood, PA (17536)

1:23 PM EST on February 12, 2016 (GMT -0500)
Kirkwood, PA | | Change Station
CLOSE
Current Station
Personal Weather Station
Location: Kirkwood, PA
Elevation: 463 ft
Nearby Weather Stations
Active Advisory: Wind Chill Advisory Active Notice: Public Information Statement

Elev 463 ft 39.85 °N, 76.06 °W | Updated 13 minutes ago

Mostly Cloudy
Mostly Cloudy
21.2 °F
Feels Like 14 °F
N
5.0
Wind Variable Wind from WSW
Gusts 7.0 mph

Today
High -- | Low -- °F
--% Chance of Precip.
Yesterday
High -- | Low -- °F
Precip. -- in
Pressure 30.12 in
Visibility 10.0 miles
Clouds Clear
Windchill 14 °F
Dew Point 9 °F
Humidity 60%
Rainfall 0.00 in
Snow Depth Not available.
7:01 AM 5:36 PM
Waxing Crescent, 22% visible
METAR KMQS 121815Z AUTO 22005KT 10SM CLR M07/M16 A3012 RMK AO2
Pressure 30.12 in
Visibility 10.0 miles
Clouds Clear
Windchill 14 °F
Dew Point 9 °F
Humidity 60%
Rainfall 0.00 in
Snow Depth Not available.
7:01 AM 5:36 PM
Waxing Crescent, 22% visible
METAR KMQS 121815Z AUTO 22005KT 10SM CLR M07/M16 A3012 RMK AO2

10-Day Weather Forecast

Almanac

Astronomy

Feb. 12, 2016 Rise Set
Actual Time
Civil Twilight
Nautical Twilight
Astronomical Twilight
Moon
Length of Visible Light
Length of Day
Tomorrow will be .
, % of the Moon is Illuminated

Today's Extremes

State Highs State Lows

Community

WunderPhotos

Upload Photos

1,892,364 photos uploaded!

WunderBlog® & News

Nearby

Air Quality

  Air Quality AQ Index Pollutant
Not available.

Snow Depth

Station Depth Elevation

Earthquake Activity

City Distance Mag. Time & Date
Minimum magnitude displayed is 2.5.

Coastal Water Temperatures

Place Temperature

Stations

Nearby Weather Stations

Station Location Temp. Windchill Dew Point Humidity Wind Precip. Elev Updated Type
                   

Watches & Warnings

Wind Chill Advisory
Issued: 1:11 PM EST Feb. 12, 2016 – National Weather Service

... Wind Chill Advisory in effect from 5 PM Saturday to 11 am EST
Sunday...

The National Weather Service in State College has issued a Wind
Chill Advisory... which is in effect from 5 PM Saturday to 11 am
EST Sunday.

* Locations... the central mountains and Susquehanna valley.

* Hazard types... dangerous wind chills.

* Wind chills... 15 to 20 below zero.

* Timing... late Saturday through Sunday morning.

* Impacts... frostbite and hypothermia are possible if
precautions are not taken.

* Winds... northwest 10 to 20 mph with gusts up to 40 mph.

* Temperatures... in the single digits to teens... falling to
between 5 below and 5 above zero early Sunday morning.

Precautionary/preparedness actions...

If you will be outdoors... dress in layers and wear a hat and
gloves. Young children... the elderly and the homeless are
especially vulnerable to the cold. Appropriate action should be
taken to ensure pets have adequate protection from the cold
temperatures.